createdAt,value
2023-01-21T00:04:47.990Z,-1.18
2023-01-21T00:09:54.225Z,-1.19
2023-01-21T00:14:58.712Z,-1.17
2023-01-21T00:20:01.738Z,-1.28
2023-01-21T00:25:05.161Z,-1.27
2023-01-21T00:30:11.216Z,-1.28
2023-01-21T00:35:14.534Z,-1.35
2023-01-21T00:40:18.359Z,-1.36
2023-01-21T00:45:22.978Z,-1.40
2023-01-21T00:50:26.021Z,-1.42
2023-01-21T00:55:29.117Z,-1.49
2023-01-21T01:00:33.813Z,-1.48
2023-01-21T01:05:37.276Z,-1.46
2023-01-21T01:10:40.290Z,-1.50
2023-01-21T01:15:45.004Z,-1.51
2023-01-21T01:20:48.114Z,-1.53
2023-01-21T01:25:58.655Z,-1.55
2023-01-21T01:31:06.104Z,-1.63
2023-01-21T01:36:13.573Z,-1.63
2023-01-21T01:41:21.639Z,-1.66
2023-01-21T01:46:27.480Z,-1.67
2023-01-21T01:51:40.015Z,-1.68
2023-01-21T01:56:46.465Z,-1.72
2023-01-21T02:01:51.581Z,-1.74
2023-01-21T02:06:56.991Z,-1.77
2023-01-21T02:12:02.100Z,-1.82
2023-01-21T02:17:23.287Z,-1.83
2023-01-21T02:22:33.246Z,-1.84
2023-01-21T02:27:47.856Z,-1.87
2023-01-21T02:33:27.280Z,-1.86
2023-01-21T02:38:39.376Z,-1.93
2023-01-21T02:43:51.557Z,-1.92
2023-01-21T02:49:00.639Z,-1.94
2023-01-21T02:54:16.230Z,-1.97
2023-01-21T02:59:19.798Z,-2.00
2023-01-21T03:04:44.443Z,-1.95
2023-01-21T03:09:49.649Z,-2.00
2023-01-21T03:15:19.472Z,-2.00
2023-01-21T03:20:27.133Z,-2.02
2023-01-21T03:25:34.614Z,-2.07
2023-01-21T03:30:41.582Z,-2.09
2023-01-21T03:35:47.863Z,-2.16
2023-01-21T03:40:56.292Z,-2.22
2023-01-21T03:46:05.730Z,-2.26
2023-01-21T03:51:14.084Z,-2.31
2023-01-21T03:56:18.460Z,-2.40
2023-01-21T04:01:22.974Z,-2.45
2023-01-21T04:06:26.032Z,-2.48
2023-01-21T04:11:30.479Z,-2.64
2023-01-21T04:16:33.587Z,-2.63
2023-01-21T04:21:36.910Z,-2.67
2023-01-21T04:26:41.385Z,-2.73
2023-01-21T04:31:44.694Z,-2.73
2023-01-21T04:36:48.093Z,-2.77
2023-01-21T04:41:52.549Z,-2.77
2023-01-21T04:46:55.637Z,-2.80
2023-01-21T04:51:58.664Z,-2.88
2023-01-21T04:57:03.049Z,-2.84
2023-01-21T05:02:05.982Z,-2.84
2023-01-21T05:07:09.363Z,-2.84
2023-01-21T05:12:13.876Z,-2.87
2023-01-21T05:17:16.888Z,-2.89
2023-01-21T05:22:20.325Z,-2.91
2023-01-21T05:27:24.891Z,-2.89
2023-01-21T05:32:27.799Z,-2.90
2023-01-21T05:37:30.756Z,-2.88
2023-01-21T05:42:35.259Z,-2.89
2023-01-21T05:47:38.418Z,-2.93
2023-01-21T05:52:41.423Z,-2.94
2023-01-21T05:57:45.803Z,-2.95
2023-01-21T06:02:48.823Z,-2.98
2023-01-21T06:07:53.011Z,-2.96
2023-01-21T06:12:58.073Z,-2.98
2023-01-21T06:18:01.249Z,-3.03
2023-01-21T06:23:04.491Z,-3.05
2023-01-21T06:28:10.316Z,-3.09
2023-01-21T06:33:13.293Z,-3.06
2023-01-21T06:38:16.513Z,-3.05
2023-01-21T06:43:21.034Z,-3.06
2023-01-21T06:48:25.054Z,-3.07
2023-01-21T06:53:28.213Z,-3.10
2023-01-21T06:58:32.575Z,-3.14
2023-01-21T07:03:35.634Z,-3.17
2023-01-21T07:08:38.674Z,-3.21
2023-01-21T07:13:43.098Z,-3.23
2023-01-21T07:18:46.114Z,-3.23
2023-01-21T07:23:49.398Z,-3.21
2023-01-21T07:28:56.509Z,-3.22
2023-01-21T07:33:59.611Z,-3.25
2023-01-21T07:39:02.933Z,-3.26
2023-01-21T07:44:07.368Z,-3.20
2023-01-21T07:49:12.943Z,-3.05
2023-01-21T07:54:16.730Z,-2.98
2023-01-21T07:59:23.864Z,-2.83
2023-01-21T08:04:27.150Z,-2.80
2023-01-21T08:09:30.318Z,-2.67
2023-01-21T08:14:34.974Z,-2.69
2023-01-21T08:19:38.196Z,-2.55
2023-01-21T08:24:41.280Z,-2.43
2023-01-21T08:29:46.883Z,-2.26
2023-01-21T08:34:53.819Z,-2.19
2023-01-21T08:39:56.875Z,-2.11
2023-01-21T08:45:01.388Z,-2.11
2023-01-21T08:50:05.385Z,-2.09
2023-01-21T08:55:08.966Z,-1.93
2023-01-21T09:00:15.580Z,-1.93
2023-01-21T09:05:19.373Z,-1.86
2023-01-21T09:10:41.622Z,-1.87
2023-01-21T09:15:46.179Z,-1.71
2023-01-21T09:20:49.418Z,-1.68
2023-01-21T09:25:53.076Z,-1.70
2023-01-21T09:30:59.306Z,-1.23
2023-01-21T09:36:05.513Z,-1.12
2023-01-21T09:41:20.268Z,-0.93
2023-01-21T09:46:35.580Z,-0.87
2023-01-21T09:51:47.913Z,-0.83
2023-01-21T09:57:01.599Z,-0.85
2023-01-21T10:02:15.707Z,-0.73
2023-01-21T10:07:25.111Z,-0.55
2023-01-21T10:12:43.715Z,-0.42
2023-01-21T10:17:58.120Z,-0.19
2023-01-21T10:23:06.619Z,0.03
2023-01-21T10:28:15.637Z,0.46
2023-01-21T10:33:24.036Z,0.61
2023-01-21T10:38:38.779Z,0.35
2023-01-21T10:43:48.679Z,0.47
2023-01-21T10:48:58.089Z,0.69
2023-01-21T10:54:07.301Z,0.44
2023-01-21T10:59:15.081Z,-0.01
2023-01-21T11:04:25.501Z,0.53
2023-01-21T11:09:32.649Z,0.68
2023-01-21T11:14:35.941Z,0.69
2023-01-21T11:19:40.609Z,0.61
2023-01-21T11:24:45.788Z,0.56
2023-01-21T11:29:50.221Z,0.22
2023-01-21T11:35:05.001Z,0.06
2023-01-21T11:40:17.282Z,-0.10
2023-01-21T11:45:29.038Z,-0.10
2023-01-21T11:50:35.446Z,-0.06
2023-01-21T11:55:41.652Z,-0.02
2023-01-21T12:00:47.524Z,0.09
2023-01-21T12:05:54.346Z,0.32
2023-01-21T12:11:02.130Z,0.38
2023-01-21T12:16:29.092Z,0.46
2023-01-21T12:21:44.838Z,0.57
2023-01-21T12:26:57.641Z,0.65
2023-01-21T12:32:06.086Z,0.52
2023-01-21T12:37:19.281Z,0.62
2023-01-21T12:42:31.651Z,0.52
2023-01-21T12:47:43.490Z,0.47
2023-01-21T12:52:58.320Z,0.41
2023-01-21T12:58:06.012Z,0.60
2023-01-21T13:03:21.227Z,0.57
2023-01-21T13:08:48.625Z,0.45
2023-01-21T13:14:21.063Z,0.45
2023-01-21T13:19:24.528Z,0.60
2023-01-21T13:24:34.669Z,0.63
2023-01-21T13:29:46.896Z,0.61
2023-01-21T13:34:58.624Z,0.47
2023-01-21T13:40:23.191Z,0.53
2023-01-21T13:45:38.587Z,0.38
2023-01-21T13:50:56.651Z,0.35
2023-01-21T13:56:20.417Z,0.32
2023-01-21T14:01:28.165Z,0.26
2023-01-21T14:06:37.696Z,0.40
2023-01-21T14:11:49.452Z,0.32
2023-01-21T14:17:30.308Z,0.23
2023-01-21T14:22:55.029Z,0.35
2023-01-21T14:28:10.088Z,0.43
2023-01-21T14:33:17.120Z,0.43
2023-01-21T14:38:30.058Z,0.37
2023-01-21T14:43:53.591Z,0.25
2023-01-21T14:49:08.395Z,0.04
2023-01-21T14:54:14.880Z,0.03
2023-01-21T14:59:34.415Z,0.05
2023-01-21T15:04:40.236Z,0.01
2023-01-21T15:09:48.310Z,0.04
2023-01-21T15:14:58.242Z,0.05
2023-01-21T15:20:39.822Z,0.03
2023-01-21T15:26:03.521Z,-0.08
2023-01-21T15:31:10.588Z,0.03
2023-01-21T15:36:22.334Z,0.03
2023-01-21T15:41:38.237Z,-0.03
2023-01-21T15:46:52.442Z,-0.02
2023-01-21T15:52:05.791Z,-0.08
2023-01-21T15:57:23.501Z,-0.09
2023-01-21T16:02:31.950Z,-0.12
2023-01-21T16:07:47.000Z,-0.19
2023-01-21T16:13:05.753Z,-0.25
2023-01-21T16:18:27.114Z,-0.18
2023-01-21T16:23:35.276Z,-0.23
2023-01-21T16:28:43.402Z,-0.26
2023-01-21T16:33:48.306Z,-0.29
2023-01-21T16:38:51.672Z,-0.31
2023-01-21T16:44:01.273Z,-0.38
2023-01-21T16:49:13.376Z,-0.40
2023-01-21T16:54:24.274Z,-0.42
2023-01-21T16:59:29.456Z,-0.44
2023-01-21T17:04:33.968Z,-0.62
2023-01-21T17:09:38.089Z,-0.55
2023-01-21T17:14:41.612Z,-0.56
2023-01-21T17:19:46.160Z,-0.54
2023-01-21T17:25:00.907Z,-0.59
2023-01-21T17:30:27.900Z,-0.62
2023-01-21T17:35:34.077Z,-0.67
2023-01-21T17:40:41.177Z,-0.70
2023-01-21T17:45:47.023Z,-0.79
2023-01-21T17:50:52.644Z,-0.87
2023-01-21T17:56:02.209Z,-0.87
2023-01-21T18:01:06.040Z,-0.86
2023-01-21T18:06:18.370Z,-0.88
2023-01-21T18:11:24.486Z,-0.92
2023-01-21T18:16:27.562Z,-1.09
2023-01-21T18:21:31.976Z,-1.12
2023-01-21T18:26:35.170Z,-1.09
2023-01-21T18:31:38.883Z,-1.06
2023-01-21T18:36:43.771Z,-1.02
2023-01-21T18:41:47.584Z,-1.11
2023-01-21T18:46:53.383Z,-1.01
2023-01-21T18:51:57.871Z,-1.04
2023-01-21T18:57:01.243Z,-1.04
2023-01-21T19:02:04.556Z,-0.97
2023-01-21T19:07:15.112Z,-0.96
2023-01-21T19:12:21.133Z,-0.99
2023-01-21T19:17:26.946Z,-1.13
2023-01-21T19:22:31.556Z,-1.05
2023-01-21T19:27:40.031Z,-1.09
2023-01-21T19:32:43.503Z,-1.18
2023-01-21T19:37:50.227Z,-1.26
2023-01-21T19:42:54.282Z,-1.25
2023-01-21T19:47:57.669Z,-1.23
2023-01-21T19:53:02.018Z,-1.20
2023-01-21T19:58:07.922Z,-1.25
2023-01-21T20:03:13.072Z,-1.31
2023-01-21T20:08:21.875Z,-1.42
2023-01-21T20:13:26.177Z,-1.49
2023-01-21T20:18:32.588Z,-1.56
2023-01-21T20:23:39.010Z,-1.56
2023-01-21T20:28:47.737Z,-1.54
2023-01-21T20:33:50.775Z,-1.56
2023-01-21T20:38:56.070Z,-1.68
2023-01-21T20:43:59.309Z,-1.63
2023-01-21T20:49:02.609Z,-1.68
2023-01-21T20:54:06.972Z,-1.68
2023-01-21T20:59:10.853Z,-1.71
2023-01-21T21:04:13.873Z,-1.76
2023-01-21T21:09:19.609Z,-1.72
2023-01-21T21:14:24.290Z,-1.61
2023-01-21T21:19:27.354Z,-1.53
2023-01-21T21:24:32.258Z,-1.44
2023-01-21T21:29:35.320Z,-1.45
2023-01-21T21:34:38.334Z,-1.35
2023-01-21T21:39:42.829Z,-1.28
2023-01-21T21:44:46.158Z,-1.27
2023-01-21T21:49:49.225Z,-1.29
2023-01-21T21:54:54.930Z,-1.24
2023-01-21T21:59:58.044Z,-1.23
2023-01-21T22:05:01.172Z,-1.27
2023-01-21T22:10:06.586Z,-1.22
2023-01-21T22:15:10.746Z,-1.25
2023-01-21T22:20:14.188Z,-1.23
2023-01-21T22:25:19.019Z,-1.36
2023-01-21T22:30:23.022Z,-1.37
2023-01-21T22:35:26.010Z,-1.36
2023-01-21T22:40:33.975Z,-1.42
2023-01-21T22:45:37.191Z,-1.50
2023-01-21T22:50:41.293Z,-1.52
2023-01-21T22:55:45.637Z,-1.47
2023-01-21T23:00:48.825Z,-1.52
2023-01-21T23:05:55.012Z,-1.45
2023-01-21T23:11:03.097Z,-1.43
2023-01-21T23:16:07.715Z,-1.51
2023-01-21T23:21:14.953Z,-1.51
2023-01-21T23:26:20.322Z,-1.48
2023-01-21T23:31:24.298Z,-1.49
2023-01-21T23:36:27.611Z,-1.56
2023-01-21T23:41:32.037Z,-1.54
2023-01-21T23:46:35.520Z,-1.51
2023-01-21T23:51:40.200Z,-1.56
2023-01-21T23:56:44.578Z,-1.52
